sensor_id;sensor_type;location;lat;lon;timestamp;pressure;altitude;pressure_sealevel;temperature;humidity
45813;BME280;31519;45.408;10.962;2023-03-03T00:02:11;100816.19;;;9.64;73.67
45813;BME280;31519;45.408;10.962;2023-03-03T00:04:39;100829.63;;;9.35;74.16
45813;BME280;31519;45.408;10.962;2023-03-03T00:07:07;100823.31;;;9.31;74.64
45813;BME280;31519;45.408;10.962;2023-03-03T00:09:36;100815.63;;;9.11;75.35
45813;BME280;31519;45.408;10.962;2023-03-03T00:12:23;100819.78;;;9.17;75.24
45813;BME280;31519;45.408;10.962;2023-03-03T00:14:52;100822.25;;;9.32;75.28
45813;BME280;31519;45.408;10.962;2023-03-03T00:17:23;100816.72;;;9.29;74.52
45813;BME280;31519;45.408;10.962;2023-03-03T00:19:51;100823.03;;;9.52;73.61
45813;BME280;31519;45.408;10.962;2023-03-03T00:22:30;100815.00;;;9.19;73.96
45813;BME280;31519;45.408;10.962;2023-03-03T00:25:29;100809.31;;;9.26;74.19
45813;BME280;31519;45.408;10.962;2023-03-03T00:28:29;100807.09;;;9.14;74.33
45813;BME280;31519;45.408;10.962;2023-03-03T00:30:59;100814.47;;;9.36;73.39
45813;BME280;31519;45.408;10.962;2023-03-03T00:33:33;100811.69;;;9.27;74.07
45813;BME280;31519;45.408;10.962;2023-03-03T00:38:42;100809.97;;;9.37;74.05
45813;BME280;31519;45.408;10.962;2023-03-03T00:41:25;100807.22;;;9.23;74.09
45813;BME280;31519;45.408;10.962;2023-03-03T00:43:54;100802.09;;;9.08;74.71
45813;BME280;31519;45.408;10.962;2023-03-03T00:46:22;100807.66;;;9.11;74.43
45813;BME280;31519;45.408;10.962;2023-03-03T00:48:51;100801.19;;;9.17;74.35
45813;BME280;31519;45.408;10.962;2023-03-03T00:51:26;100806.81;;;9.16;74.09
45813;BME280;31519;45.408;10.962;2023-03-03T00:53:56;100801.69;;;9.19;74.22
45813;BME280;31519;45.408;10.962;2023-03-03T00:56:25;100793.66;;;9.06;74.59
45813;BME280;31519;45.408;10.962;2023-03-03T00:58:54;100791.06;;;9.38;73.76
45813;BME280;31519;45.408;10.962;2023-03-03T01:01:24;100793.59;;;9.48;73.55
45813;BME280;31519;45.408;10.962;2023-03-03T01:03:53;100794.16;;;9.26;73.18
45813;BME280;31519;45.408;10.962;2023-03-03T01:06:22;100800.25;;;9.27;73.74
45813;BME280;31519;45.408;10.962;2023-03-03T01:08:50;100802.41;;;9.06;74.50
45813;BME280;31519;45.408;10.962;2023-03-03T01:11:21;100799.25;;;9.04;74.46
45813;BME280;31519;45.408;10.962;2023-03-03T01:13:51;100791.91;;;8.96;74.59
45813;BME280;31519;45.408;10.962;2023-03-03T01:16:20;100795.69;;;8.90;75.15
45813;BME280;31519;45.408;10.962;2023-03-03T01:18:50;100792.28;;;9.08;74.85
45813;BME280;31519;45.408;10.962;2023-03-03T01:21:18;100782.84;;;8.78;75.70
45813;BME280;31519;45.408;10.962;2023-03-03T01:23:46;100792.00;;;9.10;74.98
45813;BME280;31519;45.408;10.962;2023-03-03T01:26:15;100789.94;;;9.25;74.15
45813;BME280;31519;45.408;10.962;2023-03-03T01:28:43;100773.31;;;8.96;74.75
45813;BME280;31519;45.408;10.962;2023-03-03T01:31:11;100778.09;;;8.94;75.31
45813;BME280;31519;45.408;10.962;2023-03-03T01:33:40;100773.06;;;9.16;74.37
45813;BME280;31519;45.408;10.962;2023-03-03T01:36:09;100763.03;;;9.08;74.11
45813;BME280;31519;45.408;10.962;2023-03-03T01:38:37;100765.94;;;9.12;74.39
45813;BME280;31519;45.408;10.962;2023-03-03T01:41:06;100769.38;;;9.12;74.04
45813;BME280;31519;45.408;10.962;2023-03-03T01:43:34;100766.63;;;9.17;74.24
45813;BME280;31519;45.408;10.962;2023-03-03T01:48:37;100758.09;;;9.02;75.23
45813;BME280;31519;45.408;10.962;2023-03-03T01:53:40;100757.25;;;9.06;75.29
45813;BME280;31519;45.408;10.962;2023-03-03T01:56:10;100753.59;;;9.02;75.49
45813;BME280;31519;45.408;10.962;2023-03-03T01:58:46;100751.47;;;8.80;75.57
45813;BME280;31519;45.408;10.962;2023-03-03T02:01:20;100749.53;;;9.05;75.71
45813;BME280;31519;45.408;10.962;2023-03-03T02:03:50;100750.00;;;8.93;75.22
45813;BME280;31519;45.408;10.962;2023-03-03T02:06:27;100742.09;;;8.88;75.39
45813;BME280;31519;45.408;10.962;2023-03-03T02:09:05;100738.84;;;8.91;75.18
45813;BME280;31519;45.408;10.962;2023-03-03T02:11:36;100736.25;;;9.05;75.58
45813;BME280;31519;45.408;10.962;2023-03-03T02:14:04;100731.09;;;8.95;74.91
45813;BME280;31519;45.408;10.962;2023-03-03T02:16:33;100726.88;;;8.94;75.51
45813;BME280;31519;45.408;10.962;2023-03-03T02:19:01;100726.91;;;8.70;75.54
45813;BME280;31519;45.408;10.962;2023-03-03T02:21:32;100717.78;;;8.76;75.87
45813;BME280;31519;45.408;10.962;2023-03-03T02:24:15;100722.19;;;8.85;75.34
45813;BME280;31519;45.408;10.962;2023-03-03T02:26:46;100719.03;;;8.83;76.24
45813;BME280;31519;45.408;10.962;2023-03-03T02:29:15;100714.72;;;9.06;74.81
45813;BME280;31519;45.408;10.962;2023-03-03T02:31:44;100717.38;;;9.06;74.89
45813;BME280;31519;45.408;10.962;2023-03-03T02:34:12;100715.88;;;9.00;74.54
45813;BME280;31519;45.408;10.962;2023-03-03T02:36:41;100716.38;;;8.83;74.91
45813;BME280;31519;45.408;10.962;2023-03-03T02:39:21;100711.78;;;8.89;74.84
45813;BME280;31519;45.408;10.962;2023-03-03T02:42:04;100711.56;;;8.85;75.24
45813;BME280;31519;45.408;10.962;2023-03-03T02:44:41;100704.25;;;8.96;74.99
45813;BME280;31519;45.408;10.962;2023-03-03T02:47:09;100700.66;;;8.87;75.00
45813;BME280;31519;45.408;10.962;2023-03-03T02:49:37;100701.78;;;8.81;75.53
45813;BME280;31519;45.408;10.962;2023-03-03T02:52:08;100711.69;;;8.94;75.24
45813;BME280;31519;45.408;10.962;2023-03-03T02:54:40;100703.56;;;8.67;75.86
45813;BME280;31519;45.408;10.962;2023-03-03T02:57:08;100694.34;;;8.83;75.38
45813;BME280;31519;45.408;10.962;2023-03-03T02:59:36;100695.53;;;8.72;75.80
45813;BME280;31519;45.408;10.962;2023-03-03T03:02:11;100688.94;;;8.69;76.08
45813;BME280;31519;45.408;10.962;2023-03-03T03:04:40;100690.38;;;8.80;75.71
45813;BME280;31519;45.408;10.962;2023-03-03T03:07:10;100687.78;;;8.57;76.43
45813;BME280;31519;45.408;10.962;2023-03-03T03:09:39;100682.09;;;8.44;77.33
45813;BME280;31519;45.408;10.962;2023-03-03T03:12:07;100685.28;;;8.65;76.17
45813;BME280;31519;45.408;10.962;2023-03-03T03:14:35;100672.38;;;8.77;75.70
45813;BME280;31519;45.408;10.962;2023-03-03T03:17:05;100683.50;;;8.79;75.34
45813;BME280;31519;45.408;10.962;2023-03-03T03:19:33;100672.44;;;8.91;75.25
45813;BME280;31519;45.408;10.962;2023-03-03T03:22:03;100668.50;;;8.70;75.98
45813;BME280;31519;45.408;10.962;2023-03-03T03:24:34;100672.88;;;8.61;76.34
45813;BME280;31519;45.408;10.962;2023-03-03T03:27:05;100673.28;;;8.49;77.24
45813;BME280;31519;45.408;10.962;2023-03-03T03:29:33;100663.66;;;8.72;76.84
45813;BME280;31519;45.408;10.962;2023-03-03T03:32:02;100670.78;;;8.76;76.47
45813;BME280;31519;45.408;10.962;2023-03-03T03:34:30;100676.47;;;8.70;76.30
45813;BME280;31519;45.408;10.962;2023-03-03T03:36:58;100672.13;;;8.55;77.17
45813;BME280;31519;45.408;10.962;2023-03-03T03:39:28;100671.38;;;8.31;77.52
45813;BME280;31519;45.408;10.962;2023-03-03T03:41:56;100665.53;;;8.34;77.81
45813;BME280;31519;45.408;10.962;2023-03-03T03:44:24;100672.06;;;8.41;77.55
45813;BME280;31519;45.408;10.962;2023-03-03T03:46:54;100671.09;;;8.32;78.14
45813;BME280;31519;45.408;10.962;2023-03-03T03:49:22;100672.19;;;8.26;78.79
45813;BME280;31519;45.408;10.962;2023-03-03T03:51:53;100670.25;;;8.37;77.95
45813;BME280;31519;45.408;10.962;2023-03-03T03:54:24;100671.09;;;8.32;79.01
45813;BME280;31519;45.408;10.962;2023-03-03T03:56:53;100675.28;;;8.38;78.46
45813;BME280;31519;45.408;10.962;2023-03-03T03:59:22;100662.78;;;8.39;78.03
45813;BME280;31519;45.408;10.962;2023-03-03T04:01:51;100666.91;;;8.26;78.17
45813;BME280;31519;45.408;10.962;2023-03-03T04:04:20;100671.94;;;8.28;79.06
45813;BME280;31519;45.408;10.962;2023-03-03T04:06:49;100677.00;;;8.29;79.19
45813;BME280;31519;45.408;10.962;2023-03-03T04:09:18;100666.03;;;8.55;78.56
45813;BME280;31519;45.408;10.962;2023-03-03T04:11:48;100662.88;;;8.53;77.81
45813;BME280;31519;45.408;10.962;2023-03-03T04:14:17;100667.84;;;8.59;77.94
45813;BME280;31519;45.408;10.962;2023-03-03T04:16:45;100667.59;;;8.37;78.94
45813;BME280;31519;45.408;10.962;2023-03-03T04:19:13;100666.25;;;8.58;78.36
45813;BME280;31519;45.408;10.962;2023-03-03T04:21:42;100664.75;;;8.28;79.24
45813;BME280;31519;45.408;10.962;2023-03-03T04:24:10;100662.50;;;8.40;78.86
45813;BME280;31519;45.408;10.962;2023-03-03T04:26:39;100660.94;;;8.16;79.53
45813;BME280;31519;45.408;10.962;2023-03-03T04:29:09;100652.56;;;8.27;79.90
45813;BME280;31519;45.408;10.962;2023-03-03T04:31:38;100656.06;;;8.47;78.76
45813;BME280;31519;45.408;10.962;2023-03-03T04:34:08;100668.41;;;8.37;79.62
45813;BME280;31519;45.408;10.962;2023-03-03T04:36:36;100661.91;;;8.01;80.83
45813;BME280;31519;45.408;10.962;2023-03-03T04:39:05;100663.34;;;8.12;80.60
45813;BME280;31519;45.408;10.962;2023-03-03T04:41:33;100657.03;;;8.08;80.84
45813;BME280;31519;45.408;10.962;2023-03-03T04:44:02;100662.56;;;7.88;81.14
45813;BME280;31519;45.408;10.962;2023-03-03T04:46:30;100667.31;;;7.91;81.42
45813;BME280;31519;45.408;10.962;2023-03-03T04:48:58;100663.00;;;7.95;81.17
45813;BME280;31519;45.408;10.962;2023-03-03T04:51:27;100662.34;;;8.08;80.78
45813;BME280;31519;45.408;10.962;2023-03-03T04:53:55;100655.34;;;7.93;80.97
45813;BME280;31519;45.408;10.962;2023-03-03T04:56:24;100652.56;;;8.03;81.22
45813;BME280;31519;45.408;10.962;2023-03-03T04:58:52;100648.34;;;8.02;80.57
45813;BME280;31519;45.408;10.962;2023-03-03T05:01:20;100652.09;;;8.01;81.09
45813;BME280;31519;45.408;10.962;2023-03-03T05:03:49;100655.00;;;8.00;80.73
45813;BME280;31519;45.408;10.962;2023-03-03T05:06:18;100650.19;;;8.02;80.43
45813;BME280;31519;45.408;10.962;2023-03-03T05:08:46;100661.72;;;7.92;81.07
45813;BME280;31519;45.408;10.962;2023-03-03T05:11:14;100649.34;;;8.07;81.26
45813;BME280;31519;45.408;10.962;2023-03-03T05:13:42;100649.91;;;8.03;81.23
45813;BME280;31519;45.408;10.962;2023-03-03T05:16:11;100641.47;;;8.01;80.88
45813;BME280;31519;45.408;10.962;2023-03-03T05:18:42;100653.38;;;8.04;81.24
45813;BME280;31519;45.408;10.962;2023-03-03T05:21:12;100648.00;;;7.85;81.16
45813;BME280;31519;45.408;10.962;2023-03-03T05:23:40;100653.31;;;7.85;82.08
45813;BME280;31519;45.408;10.962;2023-03-03T05:26:08;100653.31;;;7.85;82.31
45813;BME280;31519;45.408;10.962;2023-03-03T05:28:36;100658.38;;;7.82;81.88
45813;BME280;31519;45.408;10.962;2023-03-03T05:31:05;100658.72;;;7.99;82.08
45813;BME280;31519;45.408;10.962;2023-03-03T05:33:33;100663.13;;;7.85;81.62
45813;BME280;31519;45.408;10.962;2023-03-03T05:36:01;100659.91;;;7.88;81.83
45813;BME280;31519;45.408;10.962;2023-03-03T05:38:29;100666.28;;;7.87;82.16
45813;BME280;31519;45.408;10.962;2023-03-03T05:40:57;100658.63;;;8.09;81.35
45813;BME280;31519;45.408;10.962;2023-03-03T05:43:25;100664.31;;;7.74;82.22
45813;BME280;31519;45.408;10.962;2023-03-03T05:45:57;100671.56;;;7.63;82.88
45813;BME280;31519;45.408;10.962;2023-03-03T05:48:26;100668.28;;;7.71;83.00
45813;BME280;31519;45.408;10.962;2023-03-03T05:50:57;100668.53;;;7.75;82.26
45813;BME280;31519;45.408;10.962;2023-03-03T05:53:27;100666.63;;;8.04;81.76
45813;BME280;31519;45.408;10.962;2023-03-03T05:55:55;100673.16;;;8.12;81.10
45813;BME280;31519;45.408;10.962;2023-03-03T05:58:24;100686.88;;;7.95;81.35
45813;BME280;31519;45.408;10.962;2023-03-03T06:00:52;100687.06;;;7.51;84.10
45813;BME280;31519;45.408;10.962;2023-03-03T06:03:20;100688.56;;;7.86;82.86
45813;BME280;31519;45.408;10.962;2023-03-03T06:05:49;100674.56;;;7.80;82.41
45813;BME280;31519;45.408;10.962;2023-03-03T06:08:17;100680.16;;;7.79;83.19
45813;BME280;31519;45.408;10.962;2023-03-03T06:10:45;100682.19;;;7.87;82.78
45813;BME280;31519;45.408;10.962;2023-03-03T06:13:14;100683.72;;;7.93;82.85
45813;BME280;31519;45.408;10.962;2023-03-03T06:15:43;100690.22;;;7.82;83.60
45813;BME280;31519;45.408;10.962;2023-03-03T06:18:11;100688.41;;;7.77;84.17
45813;BME280;31519;45.408;10.962;2023-03-03T06:20:39;100694.44;;;8.07;83.01
45813;BME280;31519;45.408;10.962;2023-03-03T06:23:07;100693.31;;;7.89;83.18
45813;BME280;31519;45.408;10.962;2023-03-03T06:25:38;100697.59;;;7.85;84.01
45813;BME280;31519;45.408;10.962;2023-03-03T06:28:06;100693.78;;;7.96;83.62
45813;BME280;31519;45.408;10.962;2023-03-03T06:30:35;100702.19;;;8.03;83.26
45813;BME280;31519;45.408;10.962;2023-03-03T06:33:03;100701.75;;;8.20;83.66
45813;BME280;31519;45.408;10.962;2023-03-03T06:35:31;100699.09;;;8.20;82.45
45813;BME280;31519;45.408;10.962;2023-03-03T06:37:59;100709.19;;;8.18;83.29
45813;BME280;31519;45.408;10.962;2023-03-03T06:40:27;100699.25;;;8.28;83.33
45813;BME280;31519;45.408;10.962;2023-03-03T06:42:55;100709.50;;;8.11;83.62
45813;BME280;31519;45.408;10.962;2023-03-03T06:45:24;100697.56;;;8.14;84.23
45813;BME280;31519;45.408;10.962;2023-03-03T06:47:52;100699.53;;;8.51;82.79
45813;BME280;31519;45.408;10.962;2023-03-03T06:50:20;100700.28;;;8.75;81.34
45813;BME280;31519;45.408;10.962;2023-03-03T06:52:49;100701.00;;;9.18;79.69
45813;BME280;31519;45.408;10.962;2023-03-03T06:55:21;100703.03;;;9.07;79.39
45813;BME280;31519;45.408;10.962;2023-03-03T06:57:49;100706.34;;;9.31;79.32
45813;BME280;31519;45.408;10.962;2023-03-03T07:00:27;100701.25;;;9.67;77.61
45813;BME280;31519;45.408;10.962;2023-03-03T07:03:07;100706.28;;;9.69;77.44
45813;BME280;31519;45.408;10.962;2023-03-03T07:05:38;100708.09;;;10.14;76.04
45813;BME280;31519;45.408;10.962;2023-03-03T07:08:18;100709.09;;;10.05;74.82
45813;BME280;31519;45.408;10.962;2023-03-03T07:10:47;100716.22;;;10.23;74.42
45813;BME280;31519;45.408;10.962;2023-03-03T07:13:25;100707.31;;;10.55;72.48
45813;BME280;31519;45.408;10.962;2023-03-03T07:15:55;100712.53;;;10.60;71.67
45813;BME280;31519;45.408;10.962;2023-03-03T07:21:22;100712.88;;;10.94;69.81
45813;BME280;31519;45.408;10.962;2023-03-03T07:23:53;100720.00;;;11.21;68.79
45813;BME280;31519;45.408;10.962;2023-03-03T07:26:31;100717.38;;;11.30;68.32
45813;BME280;31519;45.408;10.962;2023-03-03T07:29:18;100732.06;;;11.41;67.92
45813;BME280;31519;45.408;10.962;2023-03-03T07:31:49;100725.50;;;11.47;67.87
45813;BME280;31519;45.408;10.962;2023-03-03T07:34:23;100721.69;;;11.39;68.51
45813;BME280;31519;45.408;10.962;2023-03-03T07:36:57;100720.34;;;11.50;67.75
45813;BME280;31519;45.408;10.962;2023-03-03T07:39:37;100723.97;;;11.32;67.16
45813;BME280;31519;45.408;10.962;2023-03-03T07:42:27;100727.03;;;11.62;65.46
45813;BME280;31519;45.408;10.962;2023-03-03T07:45:29;100724.13;;;12.03;65.00
45813;BME280;31519;45.408;10.962;2023-03-03T07:48:18;100736.16;;;12.22;63.58
45813;BME280;31519;45.408;10.962;2023-03-03T07:50:51;100737.28;;;12.38;62.91
45813;BME280;31519;45.408;10.962;2023-03-03T07:53:26;100731.50;;;12.45;62.25
45813;BME280;31519;45.408;10.962;2023-03-03T07:55:55;100730.19;;;13.25;60.70
45813;BME280;31519;45.408;10.962;2023-03-03T07:58:36;100728.94;;;13.31;59.01
45813;BME280;31519;45.408;10.962;2023-03-03T08:04:23;100730.38;;;13.37;58.59
45813;BME280;31519;45.408;10.962;2023-03-03T08:06:54;100734.69;;;13.76;57.93
45813;BME280;31519;45.408;10.962;2023-03-03T08:09:29;100737.50;;;13.80;57.63
45813;BME280;31519;45.408;10.962;2023-03-03T08:14:37;100742.13;;;12.84;61.17
45813;BME280;31519;45.408;10.962;2023-03-03T08:17:23;100741.81;;;12.95;61.83
45813;BME280;31519;45.408;10.962;2023-03-03T08:19:54;100740.25;;;13.62;60.09
45813;BME280;31519;45.408;10.962;2023-03-03T08:22:35;100744.19;;;13.39;60.80
45813;BME280;31519;45.408;10.962;2023-03-03T08:25:04;100748.16;;;13.42;61.04
45813;BME280;31519;45.408;10.962;2023-03-03T08:27:32;100745.00;;;13.31;60.99
45813;BME280;31519;45.408;10.962;2023-03-03T08:30:00;100749.19;;;13.06;61.23
45813;BME280;31519;45.408;10.962;2023-03-03T08:32:28;100744.19;;;13.39;61.40
45813;BME280;31519;45.408;10.962;2023-03-03T08:34:57;100741.50;;;13.65;60.01
45813;BME280;31519;45.408;10.962;2023-03-03T08:37:25;100747.66;;;13.65;60.01
45813;BME280;31519;45.408;10.962;2023-03-03T08:39:53;100747.91;;;13.81;59.96
45813;BME280;31519;45.408;10.962;2023-03-03T08:42:21;100748.47;;;14.04;59.33
45813;BME280;31519;45.408;10.962;2023-03-03T08:44:49;100751.09;;;14.21;59.23
45813;BME280;31519;45.408;10.962;2023-03-03T08:47:17;100744.50;;;14.18;58.32
45813;BME280;31519;45.408;10.962;2023-03-03T08:49:46;100751.44;;;14.19;58.40
45813;BME280;31519;45.408;10.962;2023-03-03T08:52:14;100745.22;;;14.36;57.93
45813;BME280;31519;45.408;10.962;2023-03-03T08:54:43;100745.41;;;14.60;57.79
45813;BME280;31519;45.408;10.962;2023-03-03T08:57:11;100757.50;;;14.96;56.83
45813;BME280;31519;45.408;10.962;2023-03-03T08:59:39;100755.97;;;14.86;56.50
45813;BME280;31519;45.408;10.962;2023-03-03T09:02:07;100751.47;;;14.99;56.88
45813;BME280;31519;45.408;10.962;2023-03-03T09:04:36;100749.31;;;15.34;55.70
45813;BME280;31519;45.408;10.962;2023-03-03T09:07:04;100752.53;;;15.81;54.54
45813;BME280;31519;45.408;10.962;2023-03-03T09:09:32;100758.09;;;15.76;54.23
45813;BME280;31519;45.408;10.962;2023-03-03T09:12:12;100757.75;;;15.77;53.89
45813;BME280;31519;45.408;10.962;2023-03-03T09:14:41;100757.59;;;15.94;53.25
45813;BME280;31519;45.408;10.962;2023-03-03T09:17:27;100758.97;;;16.25;52.54
45813;BME280;31519;45.408;10.962;2023-03-03T09:20:01;100755.28;;;16.17;52.78
45813;BME280;31519;45.408;10.962;2023-03-03T09:22:37;100760.28;;;15.94;52.59
45813;BME280;31519;45.408;10.962;2023-03-03T09:25:18;100756.50;;;15.63;53.27
45813;BME280;31519;45.408;10.962;2023-03-03T09:27:48;100768.34;;;15.94;53.30
45813;BME280;31519;45.408;10.962;2023-03-03T09:32:55;100755.50;;;16.49;51.05
45813;BME280;31519;45.408;10.962;2023-03-03T09:37:55;100760.06;;;16.84;49.83
45813;BME280;31519;45.408;10.962;2023-03-03T09:49:35;100758.06;;;16.81;49.91
45813;BME280;31519;45.408;10.962;2023-03-03T09:52:32;100756.34;;;15.92;50.85
45813;BME280;31519;45.408;10.962;2023-03-03T09:55:20;100760.75;;;16.33;50.54
45813;BME280;31519;45.408;10.962;2023-03-03T09:58:08;100762.88;;;15.58;51.75
45813;BME280;31519;45.408;10.962;2023-03-03T10:11:55;100762.56;;;16.53;50.64
45813;BME280;31519;45.408;10.962;2023-03-03T10:17:51;100773.53;;;16.84;50.05
45813;BME280;31519;45.408;10.962;2023-03-03T10:23:30;100769.41;;;17.15;49.31
45813;BME280;31519;45.408;10.962;2023-03-03T10:26:21;100765.38;;;17.77;48.39
45813;BME280;31519;45.408;10.962;2023-03-03T10:29:59;100766.25;;;17.81;47.62
45813;BME280;31519;45.408;10.962;2023-03-03T10:32:29;100761.59;;;18.09;47.22
45813;BME280;31519;45.408;10.962;2023-03-03T10:40:37;100768.28;;;18.15;46.36
45813;BME280;31519;45.408;10.962;2023-03-03T10:43:24;100775.94;;;17.42;47.92
45813;BME280;31519;45.408;10.962;2023-03-03T10:46:05;100776.00;;;16.77;49.53
45813;BME280;31519;45.408;10.962;2023-03-03T10:57:13;100772.59;;;17.88;46.92
45813;BME280;31519;45.408;10.962;2023-03-03T11:05:57;100768.16;;;17.52;47.03
45813;BME280;31519;45.408;10.962;2023-03-03T11:08:42;100771.25;;;16.87;48.77
45813;BME280;31519;45.408;10.962;2023-03-03T11:11:34;100777.63;;;17.06;48.87
45813;BME280;31519;45.408;10.962;2023-03-03T11:14:28;100776.22;;;17.24;48.35
45813;BME280;31519;45.408;10.962;2023-03-03T11:25:30;100763.25;;;18.13;46.15
45813;BME280;31519;45.408;10.962;2023-03-03T11:33:46;100758.88;;;18.25;45.96
45813;BME280;31519;45.408;10.962;2023-03-03T11:36:35;100760.56;;;18.61;44.71
45813;BME280;31519;45.408;10.962;2023-03-03T11:39:10;100758.19;;;17.53;46.43
45813;BME280;31519;45.408;10.962;2023-03-03T11:41:50;100752.28;;;18.06;45.03
45813;BME280;31519;45.408;10.962;2023-03-03T11:50:04;100735.97;;;18.50;43.98
45813;BME280;31519;45.408;10.962;2023-03-03T11:55:35;100732.19;;;18.20;45.02
45813;BME280;31519;45.408;10.962;2023-03-03T12:00:47;100720.09;;;18.80;43.60
45813;BME280;31519;45.408;10.962;2023-03-03T12:03:24;100727.69;;;18.93;42.71
45813;BME280;31519;45.408;10.962;2023-03-03T12:15:03;100724.78;;;18.83;42.59
45813;BME280;31519;45.408;10.962;2023-03-03T12:22:51;100723.03;;;19.10;41.71
45813;BME280;31519;45.408;10.962;2023-03-03T12:25:42;100718.19;;;19.80;39.96
45813;BME280;31519;45.408;10.962;2023-03-03T12:28:19;100724.94;;;19.28;40.51
45813;BME280;31519;45.408;10.962;2023-03-03T12:34:07;100730.00;;;18.91;40.85
45813;BME280;31519;45.408;10.962;2023-03-03T12:39:39;100722.22;;;19.89;40.36
45813;BME280;31519;45.408;10.962;2023-03-03T12:47:45;100711.66;;;19.20;40.03
45813;BME280;31519;45.408;10.962;2023-03-03T12:53:33;100715.97;;;19.85;40.07
45813;BME280;31519;45.408;10.962;2023-03-03T12:56:07;100710.06;;;19.57;39.50
45813;BME280;31519;45.408;10.962;2023-03-03T13:01:21;100715.97;;;19.43;39.22
45813;BME280;31519;45.408;10.962;2023-03-03T13:04:07;100708.22;;;19.42;39.66
45813;BME280;31519;45.408;10.962;2023-03-03T13:15:18;100707.59;;;19.71;38.00
45813;BME280;31519;45.408;10.962;2023-03-03T13:26:12;100705.19;;;22.01;36.16
45813;BME280;31519;45.408;10.962;2023-03-03T13:31:34;100706.69;;;21.95;36.12
45813;BME280;31519;45.408;10.962;2023-03-03T13:34:06;100703.13;;;22.35;35.63
45813;BME280;31519;45.408;10.962;2023-03-03T13:36:50;100701.91;;;22.94;34.75
45813;BME280;31519;45.408;10.962;2023-03-03T13:39:24;100701.97;;;22.36;35.42
45813;BME280;31519;45.408;10.962;2023-03-03T13:42:12;100695.97;;;22.75;34.23
45813;BME280;31519;45.408;10.962;2023-03-03T13:44:48;100693.78;;;22.33;35.01
45813;BME280;31519;45.408;10.962;2023-03-03T13:47:38;100695.16;;;22.09;34.44
45813;BME280;31519;45.408;10.962;2023-03-03T13:53:16;100696.47;;;21.41;34.29
45813;BME280;31519;45.408;10.962;2023-03-03T13:56:08;100688.03;;;21.50;34.64
45813;BME280;31519;45.408;10.962;2023-03-03T14:06:39;100674.41;;;22.34;34.31
45813;BME280;31519;45.408;10.962;2023-03-03T14:15:02;100676.94;;;21.62;35.42
45813;BME280;31519;45.408;10.962;2023-03-03T14:17:54;100674.31;;;22.17;33.02
45813;BME280;31519;45.408;10.962;2023-03-03T14:20:29;100680.41;;;22.03;32.75
45813;BME280;31519;45.408;10.962;2023-03-03T14:23:24;100670.72;;;22.02;32.65
45813;BME280;31519;45.408;10.962;2023-03-03T14:25:58;100665.75;;;22.18;32.80
45813;BME280;31519;45.408;10.962;2023-03-03T14:28:28;100671.53;;;21.62;33.32
45813;BME280;31519;45.408;10.962;2023-03-03T14:30:57;100673.94;;;21.74;33.40
45813;BME280;31519;45.408;10.962;2023-03-03T14:33:28;100677.09;;;22.27;32.80
45813;BME280;31519;45.408;10.962;2023-03-03T14:41:16;100668.34;;;21.97;33.65
45813;BME280;31519;45.408;10.962;2023-03-03T14:44:46;100668.91;;;21.32;34.16
45813;BME280;31519;45.408;10.962;2023-03-03T14:47:00;100675.69;;;21.15;34.95
45813;BME280;31519;45.408;10.962;2023-03-03T14:49:31;100670.75;;;21.21;34.88
45813;BME280;31519;45.408;10.962;2023-03-03T14:54:58;100676.38;;;20.23;36.33
45813;BME280;31519;45.408;10.962;2023-03-03T14:57:39;100672.50;;;20.20;37.28
45813;BME280;31519;45.408;10.962;2023-03-03T15:02:43;100671.13;;;21.23;35.39
45813;BME280;31519;45.408;10.962;2023-03-03T15:05:25;100665.19;;;21.47;35.55
45813;BME280;31519;45.408;10.962;2023-03-03T15:07:57;100670.41;;;21.26;35.45
45813;BME280;31519;45.408;10.962;2023-03-03T15:10:38;100670.19;;;21.45;35.80
45813;BME280;31519;45.408;10.962;2023-03-03T15:16:17;100669.84;;;22.49;33.80
45813;BME280;31519;45.408;10.962;2023-03-03T15:19:02;100672.66;;;22.05;34.27
45813;BME280;31519;45.408;10.962;2023-03-03T15:24:38;100676.25;;;20.98;36.43
45813;BME280;31519;45.408;10.962;2023-03-03T15:27:18;100681.09;;;20.82;36.39
45813;BME280;31519;45.408;10.962;2023-03-03T15:32:34;100667.19;;;20.27;37.49
45813;BME280;31519;45.408;10.962;2023-03-03T15:35:16;100656.94;;;20.40;37.73
45813;BME280;31519;45.408;10.962;2023-03-03T15:38:06;100658.16;;;20.16;38.09
45813;BME280;31519;45.408;10.962;2023-03-03T15:40:47;100652.09;;;20.53;37.77
45813;BME280;31519;45.408;10.962;2023-03-03T15:43:21;100654.22;;;20.66;37.70
45813;BME280;31519;45.408;10.962;2023-03-03T15:55:05;100658.44;;;18.82;41.44
45813;BME280;31519;45.408;10.962;2023-03-03T16:00:36;100652.03;;;18.71;41.63
45813;BME280;31519;45.408;10.962;2023-03-03T16:05:56;100652.38;;;19.08;41.82
45813;BME280;31519;45.408;10.962;2023-03-03T16:08:48;100658.66;;;18.73;42.47
45813;BME280;31519;45.408;10.962;2023-03-03T16:11:25;100654.09;;;18.58;42.64
45813;BME280;31519;45.408;10.962;2023-03-03T16:14:03;100655.09;;;18.34;42.37
45813;BME280;31519;45.408;10.962;2023-03-03T16:16:46;100655.63;;;18.24;42.64
45813;BME280;31519;45.408;10.962;2023-03-03T16:19:41;100658.69;;;18.23;42.79
45813;BME280;31519;45.408;10.962;2023-03-03T16:27:55;100662.72;;;17.97;44.20
45813;BME280;31519;45.408;10.962;2023-03-03T16:30:33;100665.94;;;18.19;44.01
45813;BME280;31519;45.408;10.962;2023-03-03T16:36:22;100663.31;;;18.06;44.13
45813;BME280;31519;45.408;10.962;2023-03-03T16:39:35;100676.13;;;17.94;44.08
45813;BME280;31519;45.408;10.962;2023-03-03T16:45:17;100676.97;;;17.66;45.18
45813;BME280;31519;45.408;10.962;2023-03-03T16:47:51;100685.06;;;17.39;46.04